sensor_id;sensor_type;location;lat;lon;timestamp;pressure;altitude;pressure_sealevel;temperature;humidity
20656;BME280;10487;53.320;8.672;2023-04-27T00:01:10;101709.88;;;2.25;50.99
20656;BME280;10487;53.320;8.672;2023-04-27T00:04:12;101712.63;;;2.20;50.92
20656;BME280;10487;53.320;8.672;2023-04-27T00:07:15;101716.31;;;2.13;51.03
20656;BME280;10487;53.320;8.672;2023-04-27T00:10:17;101712.03;;;2.09;50.95
20656;BME280;10487;53.320;8.672;2023-04-27T00:13:18;101715.63;;;2.05;50.59
20656;BME280;10487;53.320;8.672;2023-04-27T00:16:20;101718.38;;;2.00;50.82
20656;BME280;10487;53.320;8.672;2023-04-27T00:19:21;101723.69;;;1.97;50.79
20656;BME280;10487;53.320;8.672;2023-04-27T00:22:23;101722.94;;;1.92;51.10
20656;BME280;10487;53.320;8.672;2023-04-27T00:25:25;101718.66;;;1.88;50.69
20656;BME280;10487;53.320;8.672;2023-04-27T00:28:27;101726.59;;;1.85;50.63
20656;BME280;10487;53.320;8.672;2023-04-27T00:31:28;101731.94;;;1.82;50.69
20656;BME280;10487;53.320;8.672;2023-04-27T00:34:30;101719.72;;;1.80;50.94
20656;BME280;10487;53.320;8.672;2023-04-27T00:37:32;101728.59;;;1.76;50.78
20656;BME280;10487;53.320;8.672;2023-04-27T00:40:33;101726.94;;;1.72;51.05
20656;BME280;10487;53.320;8.672;2023-04-27T00:43:42;101724.34;;;1.69;50.76
20656;BME280;10487;53.320;8.672;2023-04-27T00:46:44;101731.44;;;1.67;51.05
20656;BME280;10487;53.320;8.672;2023-04-27T00:49:45;101725.34;;;1.65;51.36
20656;BME280;10487;53.320;8.672;2023-04-27T00:52:47;101726.25;;;1.62;51.19
20656;BME280;10487;53.320;8.672;2023-04-27T00:55:49;101731.59;;;1.59;50.92
20656;BME280;10487;53.320;8.672;2023-04-27T00:58:51;101735.97;;;1.59;50.90
20656;BME280;10487;53.320;8.672;2023-04-27T01:01:53;101741.28;;;1.57;51.24
20656;BME280;10487;53.320;8.672;2023-04-27T01:04:55;101740.41;;;1.55;51.26
20656;BME280;10487;53.320;8.672;2023-04-27T01:07:57;101740.50;;;1.52;51.03
20656;BME280;10487;53.320;8.672;2023-04-27T01:10:59;101740.53;;;1.50;51.15
20656;BME280;10487;53.320;8.672;2023-04-27T01:14:04;101744.13;;;1.46;51.13
20656;BME280;10487;53.320;8.672;2023-04-27T01:17:07;101738.03;;;1.43;50.97
20656;BME280;10487;53.320;8.672;2023-04-27T01:20:09;101749.47;;;1.42;51.27
20656;BME280;10487;53.320;8.672;2023-04-27T01:23:13;101750.41;;;1.39;51.27
20656;BME280;10487;53.320;8.672;2023-04-27T01:26:17;101750.47;;;1.36;51.13
20656;BME280;10487;53.320;8.672;2023-04-27T01:29:19;101752.25;;;1.34;51.15
20656;BME280;10487;53.320;8.672;2023-04-27T01:32:21;101755.81;;;1.30;51.38
20656;BME280;10487;53.320;8.672;2023-04-27T01:35:23;101759.38;;;1.29;51.31
20656;BME280;10487;53.320;8.672;2023-04-27T01:38:27;101758.91;;;1.52;51.81
20656;BME280;10487;53.320;8.672;2023-04-27T01:41:29;101752.63;;;1.59;51.64
20656;BME280;10487;53.320;8.672;2023-04-27T01:44:31;101754.34;;;1.62;51.30
20656;BME280;10487;53.320;8.672;2023-04-27T01:47:33;101756.19;;;1.57;51.69
20656;BME280;10487;53.320;8.672;2023-04-27T01:50:35;101749.25;;;1.52;51.29
20656;BME280;10487;53.320;8.672;2023-04-27T01:53:36;101756.34;;;1.49;51.58
20656;BME280;10487;53.320;8.672;2023-04-27T01:56:38;101759.09;;;1.43;51.69
20656;BME280;10487;53.320;8.672;2023-04-27T01:59:40;101760.94;;;1.39;51.64
20656;BME280;10487;53.320;8.672;2023-04-27T02:02:41;101759.28;;;1.34;51.27
20656;BME280;10487;53.320;8.672;2023-04-27T02:05:43;101758.44;;;1.32;51.68
20656;BME280;10487;53.320;8.672;2023-04-27T02:08:45;101752.41;;;1.27;51.54
20656;BME280;10487;53.320;8.672;2023-04-27T02:11:46;101759.47;;;1.23;51.62
20656;BME280;10487;53.320;8.672;2023-04-27T02:14:48;101762.16;;;1.20;51.52
20656;BME280;10487;53.320;8.672;2023-04-27T02:17:49;101761.38;;;1.15;51.35
20656;BME280;10487;53.320;8.672;2023-04-27T02:20:51;101760.59;;;1.12;51.49
20656;BME280;10487;53.320;8.672;2023-04-27T02:23:53;101759.75;;;1.10;51.63
20656;BME280;10487;53.320;8.672;2023-04-27T02:26:54;101760.69;;;1.06;51.45
20656;BME280;10487;53.320;8.672;2023-04-27T02:29:56;101758.97;;;1.03;51.36
20656;BME280;10487;53.320;8.672;2023-04-27T02:32:58;101766.94;;;0.99;51.36
20656;BME280;10487;53.320;8.672;2023-04-27T02:36:01;101757.41;;;0.95;51.37
20656;BME280;10487;53.320;8.672;2023-04-27T02:39:02;101767.97;;;0.92;51.65
20656;BME280;10487;53.320;8.672;2023-04-27T02:42:04;101773.25;;;0.88;51.43
20656;BME280;10487;53.320;8.672;2023-04-27T02:45:06;101765.44;;;0.84;51.41
20656;BME280;10487;53.320;8.672;2023-04-27T02:48:08;101769.91;;;0.80;51.64
20656;BME280;10487;53.320;8.672;2023-04-27T02:51:10;101762.97;;;0.75;51.61
20656;BME280;10487;53.320;8.672;2023-04-27T02:54:11;101766.53;;;0.71;51.46
20656;BME280;10487;53.320;8.672;2023-04-27T02:57:13;101759.66;;;0.65;51.50
20656;BME280;10487;53.320;8.672;2023-04-27T03:00:15;101764.09;;;0.59;51.57
20656;BME280;10487;53.320;8.672;2023-04-27T03:03:17;101771.19;;;0.55;51.75
20656;BME280;10487;53.320;8.672;2023-04-27T03:06:19;101766.84;;;0.53;51.54
20656;BME280;10487;53.320;8.672;2023-04-27T03:09:20;101769.47;;;0.51;51.54
20656;BME280;10487;53.320;8.672;2023-04-27T03:12:22;101771.31;;;0.48;51.65
20656;BME280;10487;53.320;8.672;2023-04-27T03:15:23;101769.59;;;0.44;51.56
20656;BME280;10487;53.320;8.672;2023-04-27T03:18:25;101765.28;;;0.41;51.77
20656;BME280;10487;53.320;8.672;2023-04-27T03:21:26;101764.47;;;0.38;51.72
20656;BME280;10487;53.320;8.672;2023-04-27T03:24:28;101771.50;;;0.36;51.58
20656;BME280;10487;53.320;8.672;2023-04-27T03:27:31;101771.53;;;0.33;51.85
20656;BME280;10487;53.320;8.672;2023-04-27T03:30:33;101764.59;;;0.29;51.47
20656;BME280;10487;53.320;8.672;2023-04-27T03:33:34;101770.75;;;0.26;51.75
20656;BME280;10487;53.320;8.672;2023-04-27T03:36:36;101765.56;;;0.23;51.58
20656;BME280;10487;53.320;8.672;2023-04-27T03:39:38;101771.72;;;0.20;51.60
20656;BME280;10487;53.320;8.672;2023-04-27T03:42:40;101770.03;;;0.16;51.67
20656;BME280;10487;53.320;8.672;2023-04-27T03:45:41;101778.84;;;0.12;51.68
20656;BME280;10487;53.320;8.672;2023-04-27T03:48:43;101778.00;;;0.09;51.63
20656;BME280;10487;53.320;8.672;2023-04-27T03:51:44;101780.69;;;0.06;51.74
20656;BME280;10487;53.320;8.672;2023-04-27T03:54:46;101789.47;;;0.03;51.75
20656;BME280;10487;53.320;8.672;2023-04-27T03:57:47;101788.59;;;0.01;51.65
20656;BME280;10487;53.320;8.672;2023-04-27T04:00:49;101796.53;;;-0.00;51.81
20656;BME280;10487;53.320;8.672;2023-04-27T04:03:51;101788.69;;;-0.02;51.71
20656;BME280;10487;53.320;8.672;2023-04-27T04:06:53;101793.06;;;-0.04;51.83
20656;BME280;10487;53.320;8.672;2023-04-27T04:09:55;101797.47;;;-0.06;51.70
20656;BME280;10487;53.320;8.672;2023-04-27T04:12:57;101790.50;;;-0.07;51.72
20656;BME280;10487;53.320;8.672;2023-04-27T04:16:04;101791.38;;;-0.08;51.69
20656;BME280;10487;53.320;8.672;2023-04-27T04:19:06;101794.88;;;-0.09;51.82
20656;BME280;10487;53.320;8.672;2023-04-27T04:22:07;101802.78;;;-0.10;51.94
20656;BME280;10487;53.320;8.672;2023-04-27T04:25:09;101807.16;;;-0.11;51.83
20656;BME280;10487;53.320;8.672;2023-04-27T04:28:11;101794.94;;;-0.12;51.82
20656;BME280;10487;53.320;8.672;2023-04-27T04:31:12;101794.94;;;-0.12;51.80
20656;BME280;10487;53.320;8.672;2023-04-27T04:34:15;101794.94;;;-0.12;51.82
20656;BME280;10487;53.320;8.672;2023-04-27T04:37:17;101796.66;;;-0.11;52.08
20656;BME280;10487;53.320;8.672;2023-04-27T04:40:21;101800.13;;;-0.09;52.03
20656;BME280;10487;53.320;8.672;2023-04-27T04:43:22;101803.50;;;-0.01;52.07
20656;BME280;10487;53.320;8.672;2023-04-27T04:46:24;101798.16;;;0.08;51.90
20656;BME280;10487;53.320;8.672;2023-04-27T04:49:26;101792.81;;;0.14;52.15
20656;BME280;10487;53.320;8.672;2023-04-27T04:52:28;101797.06;;;0.21;51.89
20656;BME280;10487;53.320;8.672;2023-04-27T04:55:29;101802.25;;;0.26;51.92
20656;BME280;10487;53.320;8.672;2023-04-27T04:58:31;101798.72;;;0.29;52.22
20656;BME280;10487;53.320;8.672;2023-04-27T05:01:33;101798.69;;;0.33;51.98
20656;BME280;10487;53.320;8.672;2023-04-27T05:04:35;101796.00;;;0.35;52.15
20656;BME280;10487;53.320;8.672;2023-04-27T05:07:37;101795.09;;;0.37;52.11
20656;BME280;10487;53.320;8.672;2023-04-27T05:10:38;101794.19;;;0.40;52.16
20656;BME280;10487;53.320;8.672;2023-04-27T05:13:40;101800.28;;;0.42;52.03
20656;BME280;10487;53.320;8.672;2023-04-27T05:16:41;101809.00;;;0.44;52.16
20656;BME280;10487;53.320;8.672;2023-04-27T05:19:43;101819.47;;;0.48;52.36
20656;BME280;10487;53.320;8.672;2023-04-27T05:22:45;101819.38;;;0.53;52.24
20656;BME280;10487;53.320;8.672;2023-04-27T05:25:47;101813.22;;;0.55;52.30
20656;BME280;10487;53.320;8.672;2023-04-27T05:28:48;101826.31;;;0.57;52.05
20656;BME280;10487;53.320;8.672;2023-04-27T05:31:50;101828.88;;;0.61;52.36
20656;BME280;10487;53.320;8.672;2023-04-27T05:34:51;101819.97;;;0.70;52.14
20656;BME280;10487;53.320;8.672;2023-04-27T05:37:53;101826.78;;;0.81;52.11
20656;BME280;10487;53.320;8.672;2023-04-27T05:40:56;101820.47;;;0.93;52.45
20656;BME280;10487;53.320;8.672;2023-04-27T05:43:58;101822.06;;;1.05;52.23
20656;BME280;10487;53.320;8.672;2023-04-27T05:47:00;101817.44;;;1.17;52.37
20656;BME280;10487;53.320;8.672;2023-04-27T05:50:02;101818.94;;;1.30;52.39
20656;BME280;10487;53.320;8.672;2023-04-27T05:53:04;101817.88;;;1.40;52.14
20656;BME280;10487;53.320;8.672;2023-04-27T05:56:06;101822.94;;;1.51;52.38
20656;BME280;10487;53.320;8.672;2023-04-27T05:59:08;101818.31;;;1.64;52.30
20656;BME280;10487;53.320;8.672;2023-04-27T06:02:10;101821.63;;;1.73;52.09
20656;BME280;10487;53.320;8.672;2023-04-27T06:05:12;101823.13;;;1.85;52.12
20656;BME280;10487;53.320;8.672;2023-04-27T06:08:13;101828.16;;;1.95;52.14
20656;BME280;10487;53.320;8.672;2023-04-27T06:11:15;101837.59;;;2.07;52.42
20656;BME280;10487;53.320;8.672;2023-04-27T06:14:17;101839.09;;;2.18;52.51
20656;BME280;10487;53.320;8.672;2023-04-27T06:17:20;101833.53;;;2.31;52.26
20656;BME280;10487;53.320;8.672;2023-04-27T06:20:22;101835.00;;;2.44;52.41
20656;BME280;10487;53.320;8.672;2023-04-27T06:23:23;101846.03;;;2.59;52.25
20656;BME280;10487;53.320;8.672;2023-04-27T06:26:25;101849.25;;;2.72;52.52
20656;BME280;10487;53.320;8.672;2023-04-27T06:29:27;101856.88;;;2.84;52.73
20656;BME280;10487;53.320;8.672;2023-04-27T06:32:28;101855.72;;;2.96;52.43
20656;BME280;10487;53.320;8.672;2023-04-27T06:35:30;101857.97;;;3.11;52.64
20656;BME280;10487;53.320;8.672;2023-04-27T06:38:32;101868.16;;;3.26;52.67
20656;BME280;10487;53.320;8.672;2023-04-27T06:41:33;101864.22;;;3.42;52.61
20656;BME280;10487;53.320;8.672;2023-04-27T06:44:35;101868.19;;;3.58;52.47
20656;BME280;10487;53.320;8.672;2023-04-27T06:47:37;101874.91;;;3.70;52.41
20656;BME280;10487;53.320;8.672;2023-04-27T06:50:38;101874.63;;;3.80;52.68
20656;BME280;10487;53.320;8.672;2023-04-27T06:53:40;101870.69;;;3.93;52.54
20656;BME280;10487;53.320;8.672;2023-04-27T06:56:42;101873.78;;;4.09;52.50
20656;BME280;10487;53.320;8.672;2023-04-27T06:59:45;101866.28;;;4.25;52.57
20656;BME280;10487;53.320;8.672;2023-04-27T07:02:46;101871.13;;;4.38;52.46
20656;BME280;10487;53.320;8.672;2023-04-27T07:05:48;101867.22;;;4.51;52.45
20656;BME280;10487;53.320;8.672;2023-04-27T07:08:52;101851.03;;;4.62;52.45
20656;BME280;10487;53.320;8.672;2023-04-27T07:11:54;101853.31;;;4.72;52.37
20656;BME280;10487;53.320;8.672;2023-04-27T07:14:55;101850.38;;;4.82;52.51
20656;BME280;10487;53.320;8.672;2023-04-27T07:17:57;101858.69;;;4.97;52.36
20656;BME280;10487;53.320;8.672;2023-04-27T07:20:58;101852.91;;;5.12;52.39
20656;BME280;10487;53.320;8.672;2023-04-27T07:24:00;101846.25;;;5.27;52.17
20656;BME280;10487;53.320;8.672;2023-04-27T07:27:02;101858.13;;;5.40;52.10
20656;BME280;10487;53.320;8.672;2023-04-27T07:30:04;101852.19;;;5.58;52.23
20656;BME280;10487;53.320;8.672;2023-04-27T07:33:09;101862.06;;;5.78;52.12
20656;BME280;10487;53.320;8.672;2023-04-27T07:36:11;101855.31;;;5.94;51.96
20656;BME280;10487;53.320;8.672;2023-04-27T07:39:12;101859.97;;;6.11;52.01
20656;BME280;10487;53.320;8.672;2023-04-27T07:42:15;101860.25;;;6.26;51.93
20656;BME280;10487;53.320;8.672;2023-04-27T07:45:17;101852.56;;;6.42;52.01
20656;BME280;10487;53.320;8.672;2023-04-27T07:48:18;101855.34;;;6.60;51.88
20656;BME280;10487;53.320;8.672;2023-04-27T07:51:20;101854.47;;;6.83;51.80
20656;BME280;10487;53.320;8.672;2023-04-27T07:54:22;101857.16;;;7.03;51.83
20656;BME280;10487;53.320;8.672;2023-04-27T07:57:23;101860.81;;;7.21;51.79
20656;BME280;10487;53.320;8.672;2023-04-27T08:00:25;101854.63;;;7.42;51.65
20656;BME280;10487;53.320;8.672;2023-04-27T08:03:27;101858.13;;;7.63;51.62
20656;BME280;10487;53.320;8.672;2023-04-27T08:06:29;101849.34;;;7.81;51.76
20656;BME280;10487;53.320;8.672;2023-04-27T08:09:31;101846.00;;;7.96;51.65
20656;BME280;10487;53.320;8.672;2023-04-27T08:12:33;101840.22;;;8.07;51.41
20656;BME280;10487;53.320;8.672;2023-04-27T08:15:35;101844.25;;;8.15;51.47
20656;BME280;10487;53.320;8.672;2023-04-27T08:18:37;101846.06;;;8.15;51.46
20656;BME280;10487;53.320;8.672;2023-04-27T08:21:39;101841.00;;;8.09;51.38
20656;BME280;10487;53.320;8.672;2023-04-27T08:24:40;101846.66;;;8.01;51.16
20656;BME280;10487;53.320;8.672;2023-04-27T08:27:42;101842.56;;;7.94;51.35
20656;BME280;10487;53.320;8.672;2023-04-27T08:30:44;101839.69;;;7.98;51.16
20656;BME280;10487;53.320;8.672;2023-04-27T08:33:46;101841.88;;;8.09;51.31
20656;BME280;10487;53.320;8.672;2023-04-27T08:36:48;101847.41;;;8.23;51.23
20656;BME280;10487;53.320;8.672;2023-04-27T08:39:49;101844.91;;;8.39;51.07
20656;BME280;10487;53.320;8.672;2023-04-27T08:42:56;101852.56;;;8.45;51.06
20656;BME280;10487;53.320;8.672;2023-04-27T08:45:57;101852.88;;;8.39;50.74
20656;BME280;10487;53.320;8.672;2023-04-27T08:48:59;101853.81;;;8.38;50.63
20656;BME280;10487;53.320;8.672;2023-04-27T08:52:01;101853.53;;;8.44;50.76
20656;BME280;10487;53.320;8.672;2023-04-27T08:55:03;101847.63;;;8.56;50.93
20656;BME280;10487;53.320;8.672;2023-04-27T08:58:05;101849.31;;;8.76;50.81
20656;BME280;10487;53.320;8.672;2023-04-27T09:01:07;101859.22;;;8.91;50.70
20656;BME280;10487;53.320;8.672;2023-04-27T09:04:08;101866.50;;;9.04;50.48
20656;BME280;10487;53.320;8.672;2023-04-27T09:07:16;101862.31;;;9.17;50.54
20656;BME280;10487;53.320;8.672;2023-04-27T09:10:18;101852.78;;;9.31;50.46
20656;BME280;10487;53.320;8.672;2023-04-27T09:13:20;101856.47;;;9.45;50.38
20656;BME280;10487;53.320;8.672;2023-04-27T09:16:23;101852.00;;;9.63;50.33
20656;BME280;10487;53.320;8.672;2023-04-27T09:19:29;101859.31;;;9.92;50.56
20656;BME280;10487;53.320;8.672;2023-04-27T09:22:31;101860.28;;;10.07;50.20
20656;BME280;10487;53.320;8.672;2023-04-27T09:25:33;101865.25;;;9.97;49.92
20656;BME280;10487;53.320;8.672;2023-04-27T09:28:38;101856.44;;;9.79;49.84
20656;BME280;10487;53.320;8.672;2023-04-27T09:31:39;101859.34;;;9.75;49.84
20656;BME280;10487;53.320;8.672;2023-04-27T09:34:42;101864.66;;;9.75;49.82
20656;BME280;10487;53.320;8.672;2023-04-27T09:37:44;101864.81;;;9.72;49.85
20656;BME280;10487;53.320;8.672;2023-04-27T09:40:47;101857.81;;;9.86;49.90
20656;BME280;10487;53.320;8.672;2023-04-27T09:43:49;101856.72;;;9.90;49.53
20656;BME280;10487;53.320;8.672;2023-04-27T09:46:51;101852.75;;;9.82;49.33
20656;BME280;10487;53.320;8.672;2023-04-27T09:49:54;101855.19;;;9.69;49.40
20656;BME280;10487;53.320;8.672;2023-04-27T09:52:56;101852.22;;;9.75;49.34
20656;BME280;10487;53.320;8.672;2023-04-27T09:56:12;101854.53;;;9.81;49.26
20656;BME280;10487;53.320;8.672;2023-04-27T09:59:40;101854.53;;;9.81;49.13
20656;BME280;10487;53.320;8.672;2023-04-27T10:02:59;101845.25;;;9.73;49.14
20656;BME280;10487;53.320;8.672;2023-04-27T10:09:11;101854.91;;;9.58;49.09
20656;BME280;10487;53.320;8.672;2023-04-27T10:12:15;101848.63;;;9.59;49.10
20656;BME280;10487;53.320;8.672;2023-04-27T10:15:17;101848.53;;;9.78;48.89
20656;BME280;10487;53.320;8.672;2023-04-27T10:18:28;101849.56;;;9.91;48.83
20656;BME280;10487;53.320;8.672;2023-04-27T10:21:30;101853.06;;;10.09;48.72
20656;BME280;10487;53.320;8.672;2023-04-27T10:24:39;101845.19;;;10.23;48.44
20656;BME280;10487;53.320;8.672;2023-04-27T10:27:41;101841.31;;;10.44;48.34
20656;BME280;10487;53.320;8.672;2023-04-27T10:30:45;101837.97;;;10.72;48.07
20656;BME280;10487;53.320;8.672;2023-04-27T10:33:48;101836.06;;;10.89;48.00
20656;BME280;10487;53.320;8.672;2023-04-27T10:37:04;101832.78;;;11.00;48.19
20656;BME280;10487;53.320;8.672;2023-04-27T10:40:08;101835.91;;;11.22;48.01
20656;BME280;10487;53.320;8.672;2023-04-27T10:43:26;101837.28;;;11.43;47.82
20656;BME280;10487;53.320;8.672;2023-04-27T10:46:28;101844.31;;;11.60;47.81
20656;BME280;10487;53.320;8.672;2023-04-27T10:49:30;101832.50;;;11.78;47.39
20656;BME280;10487;53.320;8.672;2023-04-27T10:52:31;101830.78;;;11.91;47.61
20656;BME280;10487;53.320;8.672;2023-04-27T10:55:34;101841.78;;;12.01;47.11
20656;BME280;10487;53.320;8.672;2023-04-27T10:58:36;101831.19;;;11.99;47.33
20656;BME280;10487;53.320;8.672;2023-04-27T11:01:41;101831.94;;;12.01;47.56
20656;BME280;10487;53.320;8.672;2023-04-27T11:04:43;101835.53;;;12.14;47.28
20656;BME280;10487;53.320;8.672;2023-04-27T11:07:45;101837.44;;;12.40;47.69
20656;BME280;10487;53.320;8.672;2023-04-27T11:10:50;101827.47;;;12.71;47.72
20656;BME280;10487;53.320;8.672;2023-04-27T11:13:53;101826.72;;;12.81;47.55
20656;BME280;10487;53.320;8.672;2023-04-27T11:16:56;101831.31;;;12.79;47.23
20656;BME280;10487;53.320;8.672;2023-04-27T11:19:57;101831.88;;;12.84;47.36
20656;BME280;10487;53.320;8.672;2023-04-27T11:22:59;101824.84;;;12.83;47.35
20656;BME280;10487;53.320;8.672;2023-04-27T11:26:08;101826.94;;;12.78;47.44
20656;BME280;10487;53.320;8.672;2023-04-27T11:29:10;101830.31;;;12.68;47.38
20656;BME280;10487;53.320;8.672;2023-04-27T11:32:21;101823.97;;;12.56;47.30
20656;BME280;10487;53.320;8.672;2023-04-27T11:35:33;101823.50;;;12.35;47.22
20656;BME280;10487;53.320;8.672;2023-04-27T11:38:34;101821.91;;;12.19;47.23
20656;BME280;10487;53.320;8.672;2023-04-27T11:41:36;101826.88;;;12.11;47.36
20656;BME280;10487;53.320;8.672;2023-04-27T11:44:39;101820.00;;;12.07;47.09
20656;BME280;10487;53.320;8.672;2023-04-27T11:47:45;101819.78;;;12.10;47.13
20656;BME280;10487;53.320;8.672;2023-04-27T11:50:48;101817.69;;;12.15;47.35
20656;BME280;10487;53.320;8.672;2023-04-27T11:53:50;101818.25;;;12.20;47.32
20656;BME280;10487;53.320;8.672;2023-04-27T11:56:52;101820.84;;;12.21;47.23
20656;BME280;10487;53.320;8.672;2023-04-27T11:59:58;101830.97;;;12.16;47.16
20656;BME280;10487;53.320;8.672;2023-04-27T12:03:02;101828.38;;;12.15;47.27
20656;BME280;10487;53.320;8.672;2023-04-27T12:06:05;101824.47;;;12.20;47.13
20656;BME280;10487;53.320;8.672;2023-04-27T12:09:26;101829.34;;;12.14;46.89
20656;BME280;10487;53.320;8.672;2023-04-27T12:12:29;101831.06;;;12.01;47.08
20656;BME280;10487;53.320;8.672;2023-04-27T12:15:31;101841.78;;;11.87;46.76
20656;BME280;10487;53.320;8.672;2023-04-27T12:18:33;101841.84;;;11.71;46.90
20656;BME280;10487;53.320;8.672;2023-04-27T12:21:34;101833.81;;;11.57;46.77
20656;BME280;10487;53.320;8.672;2023-04-27T12:24:36;101831.00;;;11.44;46.93
20656;BME280;10487;53.320;8.672;2023-04-27T12:27:37;101828.97;;;11.34;46.79
20656;BME280;10487;53.320;8.672;2023-04-27T12:30:39;101831.91;;;11.29;46.75
20656;BME280;10487;53.320;8.672;2023-04-27T12:33:41;101834.94;;;11.23;46.82
20656;BME280;10487;53.320;8.672;2023-04-27T12:36:42;101839.88;;;11.15;46.83
20656;BME280;10487;53.320;8.672;2023-04-27T12:39:44;101825.84;;;11.11;46.58
20656;BME280;10487;53.320;8.672;2023-04-27T12:42:45;101832.94;;;11.12;46.69
20656;BME280;10487;53.320;8.672;2023-04-27T12:45:47;101826.50;;;11.15;46.47
20656;BME280;10487;53.320;8.672;2023-04-27T12:48:49;101828.41;;;11.13;46.70
20656;BME280;10487;53.320;8.672;2023-04-27T12:51:51;101826.50;;;11.15;46.74
20656;BME280;10487;53.320;8.672;2023-04-27T12:54:53;101829.25;;;11.29;46.52
20656;BME280;10487;53.320;8.672;2023-04-27T12:57:58;101828.69;;;11.38;46.51
20656;BME280;10487;53.320;8.672;2023-04-27T13:00:59;101833.00;;;11.41;46.51
20656;BME280;10487;53.320;8.672;2023-04-27T13:04:02;101833.97;;;11.40;46.18
20656;BME280;10487;53.320;8.672;2023-04-27T13:07:04;101833.28;;;11.36;46.42
20656;BME280;10487;53.320;8.672;2023-04-27T13:10:07;101837.84;;;11.34;46.14
20656;BME280;10487;53.320;8.672;2023-04-27T13:13:08;101831.91;;;11.29;46.35
20656;BME280;10487;53.320;8.672;2023-04-27T13:16:10;101825.28;;;11.20;46.35
20656;BME280;10487;53.320;8.672;2023-04-27T13:19:12;101828.41;;;11.13;46.13
20656;BME280;10487;53.320;8.672;2023-04-27T13:22:14;101818.97;;;11.07;46.36
20656;BME280;10487;53.320;8.672;2023-04-27T13:25:16;101816.38;;;11.06;46.30
20656;BME280;10487;53.320;8.672;2023-04-27T13:28:20;101807.06;;;11.13;46.18
20656;BME280;10487;53.320;8.672;2023-04-27T13:31:22;101812.34;;;11.29;46.27
20656;BME280;10487;53.320;8.672;2023-04-27T13:34:23;101808.16;;;11.39;45.93
20656;BME280;10487;53.320;8.672;2023-04-27T13:37:25;101807.81;;;11.45;45.94
20656;BME280;10487;53.320;8.672;2023-04-27T13:40:27;101805.81;;;11.48;46.12
20656;BME280;10487;53.320;8.672;2023-04-27T13:43:29;101799.34;;;11.52;45.78
20656;BME280;10487;53.320;8.672;2023-04-27T13:46:31;101803.28;;;11.61;46.18
20656;BME280;10487;53.320;8.672;2023-04-27T13:49:33;101802.91;;;11.67;45.96
20656;BME280;10487;53.320;8.672;2023-04-27T13:52:35;101798.59;;;11.64;45.77
20656;BME280;10487;53.320;8.672;2023-04-27T13:55:37;101792.59;;;11.61;45.79
20656;BME280;10487;53.320;8.672;2023-04-27T13:58:38;101794.56;;;11.57;45.57
20656;BME280;10487;53.320;8.672;2023-04-27T14:01:42;101792.09;;;11.54;45.59
20656;BME280;10487;53.320;8.672;2023-04-27T14:04:43;101792.75;;;11.58;45.95
20656;BME280;10487;53.320;8.672;2023-04-27T14:07:45;101784.44;;;11.62;45.69
20656;BME280;10487;53.320;8.672;2023-04-27T14:10:47;101783.81;;;11.59;45.81
20656;BME280;10487;53.320;8.672;2023-04-27T14:13:49;101784.09;;;11.54;45.51
20656;BME280;10487;53.320;8.672;2023-04-27T14:16:51;101786.91;;;11.51;45.58
20656;BME280;10487;53.320;8.672;2023-04-27T14:19:53;101780.97;;;11.46;45.80
20656;BME280;10487;53.320;8.672;2023-04-27T14:22:55;101777.84;;;11.40;45.80
20656;BME280;10487;53.320;8.672;2023-04-27T14:25:58;101774.19;;;11.41;45.88
20656;BME280;10487;53.320;8.672;2023-04-27T14:29:00;101769.53;;;11.44;45.71
20656;BME280;10487;53.320;8.672;2023-04-27T14:32:02;101770.00;;;11.51;45.53
20656;BME280;10487;53.320;8.672;2023-04-27T14:35:05;101764.41;;;11.55;45.40
20656;BME280;10487;53.320;8.672;2023-04-27T14:38:07;101765.16;;;11.57;45.75
20656;BME280;10487;53.320;8.672;2023-04-27T14:41:08;101767.00;;;11.57;45.40
20656;BME280;10487;53.320;8.672;2023-04-27T14:44:10;101771.56;;;11.55;45.55
20656;BME280;10487;53.320;8.672;2023-04-27T14:47:12;101772.59;;;11.52;45.58
20656;BME280;10487;53.320;8.672;2023-04-27T14:50:13;101769.31;;;11.47;45.62
20656;BME280;10487;53.320;8.672;2023-04-27T14:53:15;101774.00;;;11.44;45.44
20656;BME280;10487;53.320;8.672;2023-04-27T14:56:17;101773.31;;;11.40;45.56
20656;BME280;10487;53.320;8.672;2023-04-27T14:59:19;101769.03;;;11.38;45.32
20656;BME280;10487;53.320;8.672;2023-04-27T15:02:20;101773.13;;;11.29;45.32
20656;BME280;10487;53.320;8.672;2023-04-27T15:05:22;101775.28;;;11.23;45.52
20656;BME280;10487;53.320;8.672;2023-04-27T15:08:24;101779.28;;;11.15;45.69
20656;BME280;10487;53.320;8.672;2023-04-27T15:11:25;101785.88;;;11.10;45.51
20656;BME280;10487;53.320;8.672;2023-04-27T15:14:27;101783.47;;;11.05;45.61
20656;BME280;10487;53.320;8.672;2023-04-27T15:17:28;101773.00;;;11.02;45.40
20656;BME280;10487;53.320;8.672;2023-04-27T15:20:30;101774.97;;;10.99;45.32
20656;BME280;10487;53.320;8.672;2023-04-27T15:23:32;101768.09;;;10.95;45.40
20656;BME280;10487;53.320;8.672;2023-04-27T15:26:35;101778.09;;;10.91;45.52
20656;BME280;10487;53.320;8.672;2023-04-27T15:29:37;101773.78;;;10.89;45.45
20656;BME280;10487;53.320;8.672;2023-04-27T15:32:38;101763.97;;;10.89;45.59
20656;BME280;10487;53.320;8.672;2023-04-27T15:35:41;101775.53;;;10.90;45.51
20656;BME280;10487;53.320;8.672;2023-04-27T15:38:43;101766.47;;;10.92;45.62
20656;BME280;10487;53.320;8.672;2023-04-27T15:41:44;101765.59;;;10.92;45.43
20656;BME280;10487;53.320;8.672;2023-04-27T15:44:46;101762.06;;;10.91;45.32
20656;BME280;10487;53.320;8.672;2023-04-27T15:47:48;101762.06;;;10.91;45.57
20656;BME280;10487;53.320;8.672;2023-04-27T15:50:49;101766.72;;;10.88;45.56
20656;BME280;10487;53.320;8.672;2023-04-27T15:53:51;101758.13;;;10.83;45.37
20656;BME280;10487;53.320;8.672;2023-04-27T15:56:53;101769.16;;;10.77;45.52
20656;BME280;10487;53.320;8.672;2023-04-27T15:59:54;101769.44;;;10.72;45.42
20656;BME280;10487;53.320;8.672;2023-04-27T16:02:57;101773.31;;;10.67;45.50